sensor_id;sensor_type;location;lat;lon;timestamp;temperature;humidity
13462;DHT22;6803;45.264;5.468;2022-07-22T00:01:09;20.20;99.90
13462;DHT22;6803;45.264;5.468;2022-07-22T00:03:39;20.00;99.90
13462;DHT22;6803;45.264;5.468;2022-07-22T00:06:10;20.10;99.90
13462;DHT22;6803;45.264;5.468;2022-07-22T00:08:41;20.10;99.90
13462;DHT22;6803;45.264;5.468;2022-07-22T00:11:11;20.10;99.90
13462;DHT22;6803;45.264;5.468;2022-07-22T00:13:42;20.10;99.90
13462;DHT22;6803;45.264;5.468;2022-07-22T00:16:14;20.00;99.90
13462;DHT22;6803;45.264;5.468;2022-07-22T00:18:45;19.90;99.90
13462;DHT22;6803;45.264;5.468;2022-07-22T00:21:16;20.00;99.90
13462;DHT22;6803;45.264;5.468;2022-07-22T00:23:47;19.90;99.90
13462;DHT22;6803;45.264;5.468;2022-07-22T00:26:18;19.80;99.90
13462;DHT22;6803;45.264;5.468;2022-07-22T00:28:49;19.80;99.90
13462;DHT22;6803;45.264;5.468;2022-07-22T00:31:21;19.80;99.90
13462;DHT22;6803;45.264;5.468;2022-07-22T00:33:52;19.60;99.90
13462;DHT22;6803;45.264;5.468;2022-07-22T00:36:23;19.50;99.90
13462;DHT22;6803;45.264;5.468;2022-07-22T00:38:53;19.50;99.90
13462;DHT22;6803;45.264;5.468;2022-07-22T00:41:25;19.50;99.90
13462;DHT22;6803;45.264;5.468;2022-07-22T00:43:58;19.50;99.90
13462;DHT22;6803;45.264;5.468;2022-07-22T00:46:30;19.50;99.90
13462;DHT22;6803;45.264;5.468;2022-07-22T00:49:02;19.60;99.90
13462;DHT22;6803;45.264;5.468;2022-07-22T00:51:33;19.30;99.90
13462;DHT22;6803;45.264;5.468;2022-07-22T00:54:04;19.40;99.90
13462;DHT22;6803;45.264;5.468;2022-07-22T00:56:35;19.10;99.90
13462;DHT22;6803;45.264;5.468;2022-07-22T00:59:10;19.30;99.90
13462;DHT22;6803;45.264;5.468;2022-07-22T01:01:41;19.20;99.90
13462;DHT22;6803;45.264;5.468;2022-07-22T01:04:12;19.10;99.90
13462;DHT22;6803;45.264;5.468;2022-07-22T01:06:42;19.00;99.90
13462;DHT22;6803;45.264;5.468;2022-07-22T01:09:14;18.80;99.90
13462;DHT22;6803;45.264;5.468;2022-07-22T01:11:45;18.90;99.90
13462;DHT22;6803;45.264;5.468;2022-07-22T01:14:16;19.10;99.90
13462;DHT22;6803;45.264;5.468;2022-07-22T01:16:47;19.20;99.90
13462;DHT22;6803;45.264;5.468;2022-07-22T01:19:18;19.20;99.90
13462;DHT22;6803;45.264;5.468;2022-07-22T01:21:49;19.30;99.90
13462;DHT22;6803;45.264;5.468;2022-07-22T01:24:19;19.30;99.90
13462;DHT22;6803;45.264;5.468;2022-07-22T01:26:50;19.30;99.90
13462;DHT22;6803;45.264;5.468;2022-07-22T01:29:21;19.20;99.90
13462;DHT22;6803;45.264;5.468;2022-07-22T01:31:52;19.20;99.90
13462;DHT22;6803;45.264;5.468;2022-07-22T01:34:22;19.00;99.90
13462;DHT22;6803;45.264;5.468;2022-07-22T01:36:53;18.80;99.90
13462;DHT22;6803;45.264;5.468;2022-07-22T01:39:24;18.80;99.90
13462;DHT22;6803;45.264;5.468;2022-07-22T01:41:55;18.80;99.90
13462;DHT22;6803;45.264;5.468;2022-07-22T01:44:26;18.70;99.90
13462;DHT22;6803;45.264;5.468;2022-07-22T01:46:56;18.90;99.90
13462;DHT22;6803;45.264;5.468;2022-07-22T01:49:27;18.70;99.90
13462;DHT22;6803;45.264;5.468;2022-07-22T01:51:58;18.70;99.90
13462;DHT22;6803;45.264;5.468;2022-07-22T01:54:29;18.80;99.90
13462;DHT22;6803;45.264;5.468;2022-07-22T01:57:01;18.60;99.90
13462;DHT22;6803;45.264;5.468;2022-07-22T01:59:31;18.50;99.90
13462;DHT22;6803;45.264;5.468;2022-07-22T02:02:02;18.50;99.90
13462;DHT22;6803;45.264;5.468;2022-07-22T02:04:33;18.40;99.90
13462;DHT22;6803;45.264;5.468;2022-07-22T02:07:04;18.30;99.90
13462;DHT22;6803;45.264;5.468;2022-07-22T02:09:34;18.30;99.90
13462;DHT22;6803;45.264;5.468;2022-07-22T02:12:06;18.30;99.90
13462;DHT22;6803;45.264;5.468;2022-07-22T02:14:37;18.40;99.90
13462;DHT22;6803;45.264;5.468;2022-07-22T02:17:08;18.40;99.90
13462;DHT22;6803;45.264;5.468;2022-07-22T02:19:38;18.30;99.90
13462;DHT22;6803;45.264;5.468;2022-07-22T02:22:09;18.30;99.90
13462;DHT22;6803;45.264;5.468;2022-07-22T02:24:40;18.30;99.90
13462;DHT22;6803;45.264;5.468;2022-07-22T02:27:11;18.20;99.90
13462;DHT22;6803;45.264;5.468;2022-07-22T02:29:41;18.20;99.90
13462;DHT22;6803;45.264;5.468;2022-07-22T02:32:12;18.30;99.90
13462;DHT22;6803;45.264;5.468;2022-07-22T02:34:43;18.30;99.90
13462;DHT22;6803;45.264;5.468;2022-07-22T02:37:14;18.30;99.90
13462;DHT22;6803;45.264;5.468;2022-07-22T02:39:45;18.20;99.90
13462;DHT22;6803;45.264;5.468;2022-07-22T02:42:16;18.20;99.90
13462;DHT22;6803;45.264;5.468;2022-07-22T02:44:47;18.20;99.90
13462;DHT22;6803;45.264;5.468;2022-07-22T02:47:18;18.20;99.90
13462;DHT22;6803;45.264;5.468;2022-07-22T02:49:48;18.20;99.90
13462;DHT22;6803;45.264;5.468;2022-07-22T02:52:19;18.20;99.90
13462;DHT22;6803;45.264;5.468;2022-07-22T02:54:50;18.40;99.90
13462;DHT22;6803;45.264;5.468;2022-07-22T02:57:20;18.40;99.90
13462;DHT22;6803;45.264;5.468;2022-07-22T02:59:51;18.40;99.90
13462;DHT22;6803;45.264;5.468;2022-07-22T03:02:22;18.30;99.90
13462;DHT22;6803;45.264;5.468;2022-07-22T03:04:52;18.40;99.90
13462;DHT22;6803;45.264;5.468;2022-07-22T03:07:23;18.40;99.90
13462;DHT22;6803;45.264;5.468;2022-07-22T03:09:54;18.40;99.90
13462;DHT22;6803;45.264;5.468;2022-07-22T03:12:26;18.40;99.90
13462;DHT22;6803;45.264;5.468;2022-07-22T03:14:57;18.40;99.90
13462;DHT22;6803;45.264;5.468;2022-07-22T03:17:28;18.50;99.90
13462;DHT22;6803;45.264;5.468;2022-07-22T03:19:58;18.50;99.90
13462;DHT22;6803;45.264;5.468;2022-07-22T03:22:31;18.40;99.90
13462;DHT22;6803;45.264;5.468;2022-07-22T03:25:02;18.30;99.90
13462;DHT22;6803;45.264;5.468;2022-07-22T03:27:33;18.30;99.90
13462;DHT22;6803;45.264;5.468;2022-07-22T03:30:05;18.20;99.90
13462;DHT22;6803;45.264;5.468;2022-07-22T03:32:36;18.20;99.90
13462;DHT22;6803;45.264;5.468;2022-07-22T03:35:08;18.20;99.90
13462;DHT22;6803;45.264;5.468;2022-07-22T03:37:39;18.10;99.90
13462;DHT22;6803;45.264;5.468;2022-07-22T03:40:12;18.10;99.90
13462;DHT22;6803;45.264;5.468;2022-07-22T03:42:42;18.10;99.90
13462;DHT22;6803;45.264;5.468;2022-07-22T03:45:15;18.10;99.90
13462;DHT22;6803;45.264;5.468;2022-07-22T03:47:45;18.10;99.90
13462;DHT22;6803;45.264;5.468;2022-07-22T03:50:16;18.00;99.90
13462;DHT22;6803;45.264;5.468;2022-07-22T03:52:47;18.00;99.90
13462;DHT22;6803;45.264;5.468;2022-07-22T03:55:17;17.90;99.90
13462;DHT22;6803;45.264;5.468;2022-07-22T03:57:48;17.80;99.90
13462;DHT22;6803;45.264;5.468;2022-07-22T04:00:19;17.60;99.90
13462;DHT22;6803;45.264;5.468;2022-07-22T04:02:49;17.60;99.90
13462;DHT22;6803;45.264;5.468;2022-07-22T04:05:20;17.60;99.90
13462;DHT22;6803;45.264;5.468;2022-07-22T04:07:51;17.40;99.90
13462;DHT22;6803;45.264;5.468;2022-07-22T04:10:22;17.30;99.90
13462;DHT22;6803;45.264;5.468;2022-07-22T04:12:52;17.30;99.90
13462;DHT22;6803;45.264;5.468;2022-07-22T04:15:23;17.30;99.90
13462;DHT22;6803;45.264;5.468;2022-07-22T04:17:54;17.40;99.90
13462;DHT22;6803;45.264;5.468;2022-07-22T04:20:25;17.50;99.90
13462;DHT22;6803;45.264;5.468;2022-07-22T04:22:56;17.50;99.90
13462;DHT22;6803;45.264;5.468;2022-07-22T04:25:26;17.50;99.90
13462;DHT22;6803;45.264;5.468;2022-07-22T04:27:57;17.30;99.90
13462;DHT22;6803;45.264;5.468;2022-07-22T04:30:28;17.30;99.90
13462;DHT22;6803;45.264;5.468;2022-07-22T04:33:00;17.30;99.90
13462;DHT22;6803;45.264;5.468;2022-07-22T04:35:33;17.20;99.90
13462;DHT22;6803;45.264;5.468;2022-07-22T04:38:03;17.20;99.90
13462;DHT22;6803;45.264;5.468;2022-07-22T04:40:34;17.30;99.90
13462;DHT22;6803;45.264;5.468;2022-07-22T04:43:05;17.30;99.90
13462;DHT22;6803;45.264;5.468;2022-07-22T04:45:35;17.30;99.90
13462;DHT22;6803;45.264;5.468;2022-07-22T04:48:07;17.40;99.90
13462;DHT22;6803;45.264;5.468;2022-07-22T04:50:37;17.30;99.90
13462;DHT22;6803;45.264;5.468;2022-07-22T04:53:08;17.30;99.90
13462;DHT22;6803;45.264;5.468;2022-07-22T04:55:40;17.20;99.90
13462;DHT22;6803;45.264;5.468;2022-07-22T04:58:11;17.20;99.90
13462;DHT22;6803;45.264;5.468;2022-07-22T05:00:43;17.20;99.90
13462;DHT22;6803;45.264;5.468;2022-07-22T05:03:14;17.20;99.90
13462;DHT22;6803;45.264;5.468;2022-07-22T05:05:44;17.40;99.90
13462;DHT22;6803;45.264;5.468;2022-07-22T05:08:16;17.50;99.90
13462;DHT22;6803;45.264;5.468;2022-07-22T05:10:48;17.70;99.90
13462;DHT22;6803;45.264;5.468;2022-07-22T05:13:19;17.80;99.90
13462;DHT22;6803;45.264;5.468;2022-07-22T05:15:50;17.90;99.90
13462;DHT22;6803;45.264;5.468;2022-07-22T05:18:21;18.00;99.90
13462;DHT22;6803;45.264;5.468;2022-07-22T05:20:51;18.00;99.90
13462;DHT22;6803;45.264;5.468;2022-07-22T05:23:22;18.20;99.90
13462;DHT22;6803;45.264;5.468;2022-07-22T05:25:55;18.40;99.90
13462;DHT22;6803;45.264;5.468;2022-07-22T05:28:25;18.80;99.90
13462;DHT22;6803;45.264;5.468;2022-07-22T05:30:56;19.10;99.90
13462;DHT22;6803;45.264;5.468;2022-07-22T05:33:27;19.30;99.90
13462;DHT22;6803;45.264;5.468;2022-07-22T05:35:58;19.40;99.90
13462;DHT22;6803;45.264;5.468;2022-07-22T05:38:31;19.60;99.90
13462;DHT22;6803;45.264;5.468;2022-07-22T05:41:02;19.70;99.90
13462;DHT22;6803;45.264;5.468;2022-07-22T05:43:33;19.80;99.90
13462;DHT22;6803;45.264;5.468;2022-07-22T05:46:04;19.90;99.90
13462;DHT22;6803;45.264;5.468;2022-07-22T05:48:36;20.20;99.90
13462;DHT22;6803;45.264;5.468;2022-07-22T05:51:12;20.30;99.90
13462;DHT22;6803;45.264;5.468;2022-07-22T05:53:43;20.50;99.90
13462;DHT22;6803;45.264;5.468;2022-07-22T05:56:15;20.70;99.90
13462;DHT22;6803;45.264;5.468;2022-07-22T05:58:48;20.90;99.90
13462;DHT22;6803;45.264;5.468;2022-07-22T06:01:19;21.20;99.90
13462;DHT22;6803;45.264;5.468;2022-07-22T06:03:50;21.50;99.90
13462;DHT22;6803;45.264;5.468;2022-07-22T06:06:21;21.70;99.90
13462;DHT22;6803;45.264;5.468;2022-07-22T06:08:52;21.80;99.90
13462;DHT22;6803;45.264;5.468;2022-07-22T06:11:22;22.00;99.90
13462;DHT22;6803;45.264;5.468;2022-07-22T06:13:53;22.10;99.90
13462;DHT22;6803;45.264;5.468;2022-07-22T06:16:24;22.20;99.90
13462;DHT22;6803;45.264;5.468;2022-07-22T06:18:55;22.40;99.90
13462;DHT22;6803;45.264;5.468;2022-07-22T06:21:26;22.50;99.90
13462;DHT22;6803;45.264;5.468;2022-07-22T06:23:57;22.50;99.90
13462;DHT22;6803;45.264;5.468;2022-07-22T06:26:28;22.60;99.90
13462;DHT22;6803;45.264;5.468;2022-07-22T06:28:58;22.60;99.90
13462;DHT22;6803;45.264;5.468;2022-07-22T06:31:29;22.80;99.90
13462;DHT22;6803;45.264;5.468;2022-07-22T06:34:00;22.90;99.90
13462;DHT22;6803;45.264;5.468;2022-07-22T06:36:33;22.90;99.90
13462;DHT22;6803;45.264;5.468;2022-07-22T06:39:04;23.10;99.90
13462;DHT22;6803;45.264;5.468;2022-07-22T06:41:35;23.20;99.90
13462;DHT22;6803;45.264;5.468;2022-07-22T06:44:06;23.20;99.90
13462;DHT22;6803;45.264;5.468;2022-07-22T06:46:37;23.20;99.90
13462;DHT22;6803;45.264;5.468;2022-07-22T06:49:09;23.20;99.90
13462;DHT22;6803;45.264;5.468;2022-07-22T06:51:42;23.40;99.90
13462;DHT22;6803;45.264;5.468;2022-07-22T06:54:12;23.40;99.90
13462;DHT22;6803;45.264;5.468;2022-07-22T06:56:43;23.40;99.90
13462;DHT22;6803;45.264;5.468;2022-07-22T06:59:14;23.30;99.90
13462;DHT22;6803;45.264;5.468;2022-07-22T07:01:45;23.40;99.90
13462;DHT22;6803;45.264;5.468;2022-07-22T07:04:16;23.50;99.90
13462;DHT22;6803;45.264;5.468;2022-07-22T07:06:48;23.50;99.90
13462;DHT22;6803;45.264;5.468;2022-07-22T07:09:19;23.80;99.90
13462;DHT22;6803;45.264;5.468;2022-07-22T07:11:50;24.00;99.90
13462;DHT22;6803;45.264;5.468;2022-07-22T07:14:22;23.90;99.90
13462;DHT22;6803;45.264;5.468;2022-07-22T07:16:52;24.00;99.90
13462;DHT22;6803;45.264;5.468;2022-07-22T07:19:23;24.20;99.90
13462;DHT22;6803;45.264;5.468;2022-07-22T07:21:54;24.40;99.90
13462;DHT22;6803;45.264;5.468;2022-07-22T07:24:25;24.50;99.90
13462;DHT22;6803;45.264;5.468;2022-07-22T07:26:55;24.70;99.90
13462;DHT22;6803;45.264;5.468;2022-07-22T07:29:26;25.00;99.90
13462;DHT22;6803;45.264;5.468;2022-07-22T07:31:57;25.00;99.90
13462;DHT22;6803;45.264;5.468;2022-07-22T07:37:05;24.80;99.90
13462;DHT22;6803;45.264;5.468;2022-07-22T07:39:37;24.80;99.90
13462;DHT22;6803;45.264;5.468;2022-07-22T07:42:08;24.90;99.90
13462;DHT22;6803;45.264;5.468;2022-07-22T07:44:40;25.10;99.90
13462;DHT22;6803;45.264;5.468;2022-07-22T07:47:15;25.10;99.90
13462;DHT22;6803;45.264;5.468;2022-07-22T07:49:49;25.40;99.90
13462;DHT22;6803;45.264;5.468;2022-07-22T07:52:21;25.60;99.90
13462;DHT22;6803;45.264;5.468;2022-07-22T07:54:52;25.80;99.90
13462;DHT22;6803;45.264;5.468;2022-07-22T07:57:28;25.70;99.90
13462;DHT22;6803;45.264;5.468;2022-07-22T08:00:05;25.60;99.90
13462;DHT22;6803;45.264;5.468;2022-07-22T08:02:39;26.10;99.90
13462;DHT22;6803;45.264;5.468;2022-07-22T08:05:11;26.00;99.90
13462;DHT22;6803;45.264;5.468;2022-07-22T08:07:43;25.90;99.90
13462;DHT22;6803;45.264;5.468;2022-07-22T08:12:52;26.20;99.90
13462;DHT22;6803;45.264;5.468;2022-07-22T08:15:23;26.20;99.90
13462;DHT22;6803;45.264;5.468;2022-07-22T08:17:55;26.30;99.90
13462;DHT22;6803;45.264;5.468;2022-07-22T08:20:28;26.40;99.90
13462;DHT22;6803;45.264;5.468;2022-07-22T08:22:59;26.40;99.90
13462;DHT22;6803;45.264;5.468;2022-07-22T08:25:29;26.80;99.90
13462;DHT22;6803;45.264;5.468;2022-07-22T08:28:01;27.00;99.90
13462;DHT22;6803;45.264;5.468;2022-07-22T08:30:32;26.90;99.90
13462;DHT22;6803;45.264;5.468;2022-07-22T08:33:03;27.10;99.90
13462;DHT22;6803;45.264;5.468;2022-07-22T08:35:35;27.40;99.90
13462;DHT22;6803;45.264;5.468;2022-07-22T08:38:06;27.00;99.90
13462;DHT22;6803;45.264;5.468;2022-07-22T08:40:37;27.60;99.90
13462;DHT22;6803;45.264;5.468;2022-07-22T08:43:09;27.70;99.90
13462;DHT22;6803;45.264;5.468;2022-07-22T08:45:41;28.00;99.90
13462;DHT22;6803;45.264;5.468;2022-07-22T08:48:12;28.20;99.90
13462;DHT22;6803;45.264;5.468;2022-07-22T08:50:43;27.90;99.90
13462;DHT22;6803;45.264;5.468;2022-07-22T08:53:14;27.70;99.90
13462;DHT22;6803;45.264;5.468;2022-07-22T08:55:46;27.90;99.90
13462;DHT22;6803;45.264;5.468;2022-07-22T08:58:17;28.40;99.90
13462;DHT22;6803;45.264;5.468;2022-07-22T09:01:03;28.80;99.90
13462;DHT22;6803;45.264;5.468;2022-07-22T09:03:35;28.60;99.90
13462;DHT22;6803;45.264;5.468;2022-07-22T09:06:08;28.30;99.90
13462;DHT22;6803;45.264;5.468;2022-07-22T09:08:52;28.60;99.90
13462;DHT22;6803;45.264;5.468;2022-07-22T09:11:25;28.80;99.90
13462;DHT22;6803;45.264;5.468;2022-07-22T09:13:58;28.90;99.90
13462;DHT22;6803;45.264;5.468;2022-07-22T09:16:41;29.20;99.90
13462;DHT22;6803;45.264;5.468;2022-07-22T09:19:13;29.40;99.90
13462;DHT22;6803;45.264;5.468;2022-07-22T09:21:45;29.20;99.90
13462;DHT22;6803;45.264;5.468;2022-07-22T09:24:28;29.10;99.90
13462;DHT22;6803;45.264;5.468;2022-07-22T09:27:00;29.20;99.90
13462;DHT22;6803;45.264;5.468;2022-07-22T09:29:31;29.30;99.90
13462;DHT22;6803;45.264;5.468;2022-07-22T09:32:04;29.30;99.90
13462;DHT22;6803;45.264;5.468;2022-07-22T09:34:38;29.20;99.90
13462;DHT22;6803;45.264;5.468;2022-07-22T09:37:09;29.00;99.90
13462;DHT22;6803;45.264;5.468;2022-07-22T09:39:39;29.20;99.90
13462;DHT22;6803;45.264;5.468;2022-07-22T09:42:10;29.30;99.90
13462;DHT22;6803;45.264;5.468;2022-07-22T09:44:42;29.60;99.90
13462;DHT22;6803;45.264;5.468;2022-07-22T09:47:29;30.00;99.90
13462;DHT22;6803;45.264;5.468;2022-07-22T09:50:04;29.80;99.90
13462;DHT22;6803;45.264;5.468;2022-07-22T09:52:36;30.00;99.90
13462;DHT22;6803;45.264;5.468;2022-07-22T09:55:08;30.30;99.40
13462;DHT22;6803;45.264;5.468;2022-07-22T09:57:39;30.40;98.20
13462;DHT22;6803;45.264;5.468;2022-07-22T10:00:11;30.50;98.60
13462;DHT22;6803;45.264;5.468;2022-07-22T10:02:47;30.90;99.10
13462;DHT22;6803;45.264;5.468;2022-07-22T10:05:20;30.90;97.50
13462;DHT22;6803;45.264;5.468;2022-07-22T10:07:52;30.80;97.90
13462;DHT22;6803;45.264;5.468;2022-07-22T10:10:25;31.40;97.70
13462;DHT22;6803;45.264;5.468;2022-07-22T10:12:57;31.30;96.40
13462;DHT22;6803;45.264;5.468;2022-07-22T10:15:30;31.00;97.00
13462;DHT22;6803;45.264;5.468;2022-07-22T10:20:40;31.10;95.90
13462;DHT22;6803;45.264;5.468;2022-07-22T10:23:13;31.00;95.60
13462;DHT22;6803;45.264;5.468;2022-07-22T10:25:52;31.60;95.50
13462;DHT22;6803;45.264;5.468;2022-07-22T10:28:25;31.70;93.90
13462;DHT22;6803;45.264;5.468;2022-07-22T10:33:56;31.90;93.90
13462;DHT22;6803;45.264;5.468;2022-07-22T10:36:32;31.90;93.00
13462;DHT22;6803;45.264;5.468;2022-07-22T10:39:05;31.80;93.40
13462;DHT22;6803;45.264;5.468;2022-07-22T10:41:38;32.20;93.00
13462;DHT22;6803;45.264;5.468;2022-07-22T10:44:10;32.40;92.70
13462;DHT22;6803;45.264;5.468;2022-07-22T10:46:52;32.60;92.90
13462;DHT22;6803;45.264;5.468;2022-07-22T10:49:25;32.60;92.20
13462;DHT22;6803;45.264;5.468;2022-07-22T10:52:12;33.20;91.00
13462;DHT22;6803;45.264;5.468;2022-07-22T10:57:55;33.10;91.90
13462;DHT22;6803;45.264;5.468;2022-07-22T11:00:27;33.20;91.70
13462;DHT22;6803;45.264;5.468;2022-07-22T11:02:57;33.70;91.60
13462;DHT22;6803;45.264;5.468;2022-07-22T11:05:29;33.70;90.20
13462;DHT22;6803;45.264;5.468;2022-07-22T11:08:01;34.00;90.10
13462;DHT22;6803;45.264;5.468;2022-07-22T11:10:33;34.00;90.60
13462;DHT22;6803;45.264;5.468;2022-07-22T11:13:04;34.40;89.80
13462;DHT22;6803;45.264;5.468;2022-07-22T11:15:37;34.80;88.90
13462;DHT22;6803;45.264;5.468;2022-07-22T11:18:07;34.80;87.30
13462;DHT22;6803;45.264;5.468;2022-07-22T11:20:38;34.70;86.00
13462;DHT22;6803;45.264;5.468;2022-07-22T11:23:10;34.90;86.60
13462;DHT22;6803;45.264;5.468;2022-07-22T11:25:45;34.80;87.00
13462;DHT22;6803;45.264;5.468;2022-07-22T11:28:16;34.90;84.70
13462;DHT22;6803;45.264;5.468;2022-07-22T11:31:05;35.30;85.10
13462;DHT22;6803;45.264;5.468;2022-07-22T11:33:35;35.50;82.60
13462;DHT22;6803;45.264;5.468;2022-07-22T11:36:08;35.50;79.80
13462;DHT22;6803;45.264;5.468;2022-07-22T11:38:47;35.50;81.90
13462;DHT22;6803;45.264;5.468;2022-07-22T11:41:20;35.50;82.70
13462;DHT22;6803;45.264;5.468;2022-07-22T11:43:51;35.50;78.50
13462;DHT22;6803;45.264;5.468;2022-07-22T11:46:24;35.60;82.10
13462;DHT22;6803;45.264;5.468;2022-07-22T11:48:56;35.80;79.40
13462;DHT22;6803;45.264;5.468;2022-07-22T11:51:30;36.20;80.10
13462;DHT22;6803;45.264;5.468;2022-07-22T11:54:02;36.30;80.10
13462;DHT22;6803;45.264;5.468;2022-07-22T11:56:33;36.60;78.20
13462;DHT22;6803;45.264;5.468;2022-07-22T11:59:05;36.50;76.50
13462;DHT22;6803;45.264;5.468;2022-07-22T12:01:38;36.70;75.90
13462;DHT22;6803;45.264;5.468;2022-07-22T12:04:11;37.00;74.90
13462;DHT22;6803;45.264;5.468;2022-07-22T12:06:44;36.90;73.80
13462;DHT22;6803;45.264;5.468;2022-07-22T12:09:16;37.10;74.80
13462;DHT22;6803;45.264;5.468;2022-07-22T12:11:50;37.10;74.40
13462;DHT22;6803;45.264;5.468;2022-07-22T12:14:22;37.20;72.70
13462;DHT22;6803;45.264;5.468;2022-07-22T12:16:58;37.30;70.70
13462;DHT22;6803;45.264;5.468;2022-07-22T12:19:31;37.30;72.40
13462;DHT22;6803;45.264;5.468;2022-07-22T12:22:05;37.50;72.00
13462;DHT22;6803;45.264;5.468;2022-07-22T12:24:38;37.30;69.80
13462;DHT22;6803;45.264;5.468;2022-07-22T12:27:10;37.50;71.30
13462;DHT22;6803;45.264;5.468;2022-07-22T12:29:46;37.10;68.40
13462;DHT22;6803;45.264;5.468;2022-07-22T12:32:24;37.80;67.40
13462;DHT22;6803;45.264;5.468;2022-07-22T12:34:55;37.80;68.20
13462;DHT22;6803;45.264;5.468;2022-07-22T12:37:27;37.70;66.30
13462;DHT22;6803;45.264;5.468;2022-07-22T12:40:01;37.90;68.50
13462;DHT22;6803;45.264;5.468;2022-07-22T12:45:38;38.40;67.60
13462;DHT22;6803;45.264;5.468;2022-07-22T12:48:11;38.40;64.90
13462;DHT22;6803;45.264;5.468;2022-07-22T12:50:44;38.50;66.20
13462;DHT22;6803;45.264;5.468;2022-07-22T12:53:16;38.80;66.30
13462;DHT22;6803;45.264;5.468;2022-07-22T12:55:50;38.70;66.20
13462;DHT22;6803;45.264;5.468;2022-07-22T12:58:22;38.80;64.10
13462;DHT22;6803;45.264;5.468;2022-07-22T13:00:55;39.10;61.80
13462;DHT22;6803;45.264;5.468;2022-07-22T13:03:28;38.60;62.10
13462;DHT22;6803;45.264;5.468;2022-07-22T13:06:18;38.50;62.40
13462;DHT22;6803;45.264;5.468;2022-07-22T13:08:50;38.80;60.90
13462;DHT22;6803;45.264;5.468;2022-07-22T13:11:20;39.30;62.80
13462;DHT22;6803;45.264;5.468;2022-07-22T13:13:51;39.10;61.80
13462;DHT22;6803;45.264;5.468;2022-07-22T13:16:23;39.40;59.30
13462;DHT22;6803;45.264;5.468;2022-07-22T13:18:54;39.00;60.40
13462;DHT22;6803;45.264;5.468;2022-07-22T13:21:25;39.40;62.10
13462;DHT22;6803;45.264;5.468;2022-07-22T13:23:55;39.60;59.40
13462;DHT22;6803;45.264;5.468;2022-07-22T13:26:27;39.70;60.10
13462;DHT22;6803;45.264;5.468;2022-07-22T13:31:39;39.90;60.50
13462;DHT22;6803;45.264;5.468;2022-07-22T13:34:11;40.00;61.40
13462;DHT22;6803;45.264;5.468;2022-07-22T13:36:42;39.70;59.60
13462;DHT22;6803;45.264;5.468;2022-07-22T13:39:13;39.40;61.40
13462;DHT22;6803;45.264;5.468;2022-07-22T13:41:44;39.60;62.30
13462;DHT22;6803;45.264;5.468;2022-07-22T13:44:15;39.80;58.60
13462;DHT22;6803;45.264;5.468;2022-07-22T13:46:46;39.50;60.60
13462;DHT22;6803;45.264;5.468;2022-07-22T13:49:18;39.40;57.90
13462;DHT22;6803;45.264;5.468;2022-07-22T13:51:50;39.20;58.50
13462;DHT22;6803;45.264;5.468;2022-07-22T13:54:21;39.40;58.70
13462;DHT22;6803;45.264;5.468;2022-07-22T13:56:52;40.30;58.10
13462;DHT22;6803;45.264;5.468;2022-07-22T13:59:24;40.00;58.80
13462;DHT22;6803;45.264;5.468;2022-07-22T14:01:55;39.50;59.20
13462;DHT22;6803;45.264;5.468;2022-07-22T14:04:26;39.90;58.70
13462;DHT22;6803;45.264;5.468;2022-07-22T14:06:57;39.70;59.50
13462;DHT22;6803;45.264;5.468;2022-07-22T14:09:28;39.80;58.70
13462;DHT22;6803;45.264;5.468;2022-07-22T14:12:00;39.70;59.60
13462;DHT22;6803;45.264;5.468;2022-07-22T14:14:31;39.80;59.40
13462;DHT22;6803;45.264;5.468;2022-07-22T14:17:02;39.90;59.40
13462;DHT22;6803;45.264;5.468;2022-07-22T14:19:33;39.80;57.10
13462;DHT22;6803;45.264;5.468;2022-07-22T14:22:05;40.60;56.30
13462;DHT22;6803;45.264;5.468;2022-07-22T14:24:36;40.10;55.50
13462;DHT22;6803;45.264;5.468;2022-07-22T14:27:07;40.40;56.00
13462;DHT22;6803;45.264;5.468;2022-07-22T14:29:38;40.50;53.90
13462;DHT22;6803;45.264;5.468;2022-07-22T14:32:08;40.40;53.00
13462;DHT22;6803;45.264;5.468;2022-07-22T14:34:39;40.60;53.00
13462;DHT22;6803;45.264;5.468;2022-07-22T14:37:10;41.00;50.60
13462;DHT22;6803;45.264;5.468;2022-07-22T14:39:41;40.90;50.20
13462;DHT22;6803;45.264;5.468;2022-07-22T14:42:12;41.20;50.70
13462;DHT22;6803;45.264;5.468;2022-07-22T14:44:43;41.50;50.10
13462;DHT22;6803;45.264;5.468;2022-07-22T14:47:14;41.40;50.00
13462;DHT22;6803;45.264;5.468;2022-07-22T14:49:45;41.10;48.90
13462;DHT22;6803;45.264;5.468;2022-07-22T14:52:16;41.20;49.10
13462;DHT22;6803;45.264;5.468;2022-07-22T14:54:47;41.10;48.70
13462;DHT22;6803;45.264;5.468;2022-07-22T14:57:18;41.10;49.30
13462;DHT22;6803;45.264;5.468;2022-07-22T14:59:49;40.80;48.40
13462;DHT22;6803;45.264;5.468;2022-07-22T15:02:19;40.90;48.60
13462;DHT22;6803;45.264;5.468;2022-07-22T15:04:50;41.10;49.10
13462;DHT22;6803;45.264;5.468;2022-07-22T15:07:21;41.70;48.90
13462;DHT22;6803;45.264;5.468;2022-07-22T15:09:54;41.80;47.30
13462;DHT22;6803;45.264;5.468;2022-07-22T15:12:25;41.10;46.70
13462;DHT22;6803;45.264;5.468;2022-07-22T15:14:57;41.30;47.60
13462;DHT22;6803;45.264;5.468;2022-07-22T15:17:33;41.10;47.00
13462;DHT22;6803;45.264;5.468;2022-07-22T15:20:00;40.70;46.70
13462;DHT22;6803;45.264;5.468;2022-07-22T15:22:32;40.40;46.20
13462;DHT22;6803;45.264;5.468;2022-07-22T15:25:03;40.20;47.20
13462;DHT22;6803;45.264;5.468;2022-07-22T15:27:34;39.70;48.00
13462;DHT22;6803;45.264;5.468;2022-07-22T15:30:09;39.30;48.40
13462;DHT22;6803;45.264;5.468;2022-07-22T15:32:41;39.00;47.20
13462;DHT22;6803;45.264;5.468;2022-07-22T15:35:14;38.80;49.80
13462;DHT22;6803;45.264;5.468;2022-07-22T15:37:46;38.40;49.50
13462;DHT22;6803;45.264;5.468;2022-07-22T15:40:18;38.50;50.80
13462;DHT22;6803;45.264;5.468;2022-07-22T15:42:53;38.10;50.90
13462;DHT22;6803;45.264;5.468;2022-07-22T15:45:27;38.40;50.70
13462;DHT22;6803;45.264;5.468;2022-07-22T15:48:01;38.40;50.90
13462;DHT22;6803;45.264;5.468;2022-07-22T15:50:33;38.30;50.50
13462;DHT22;6803;45.264;5.468;2022-07-22T15:53:05;38.50;50.70
13462;DHT22;6803;45.264;5.468;2022-07-22T15:55:38;38.40;50.60
13462;DHT22;6803;45.264;5.468;2022-07-22T15:58:11;38.30;48.70
13462;DHT22;6803;45.264;5.468;2022-07-22T16:01:00;38.20;48.70
13462;DHT22;6803;45.264;5.468;2022-07-22T16:03:34;37.70;48.90
13462;DHT22;6803;45.264;5.468;2022-07-22T16:06:06;37.40;51.10
13462;DHT22;6803;45.264;5.468;2022-07-22T16:08:38;37.20;50.80
13462;DHT22;6803;45.264;5.468;2022-07-22T16:11:11;37.00;51.30
13462;DHT22;6803;45.264;5.468;2022-07-22T16:13:44;36.80;51.50
13462;DHT22;6803;45.264;5.468;2022-07-22T16:16:16;36.60;52.50
13462;DHT22;6803;45.264;5.468;2022-07-22T16:18:47;36.50;51.70
13462;DHT22;6803;45.264;5.468;2022-07-22T16:21:18;36.60;50.20
13462;DHT22;6803;45.264;5.468;2022-07-22T16:23:51;36.50;52.00
13462;DHT22;6803;45.264;5.468;2022-07-22T16:29:00;36.30;52.00
13462;DHT22;6803;45.264;5.468;2022-07-22T16:31:32;36.20;51.10
13462;DHT22;6803;45.264;5.468;2022-07-22T16:34:04;36.40;52.90
13462;DHT22;6803;45.264;5.468;2022-07-22T16:36:35;36.40;52.50